KMML/MML METAR and TAF weather

Enter ICAO airport designator
Station Type Date Time Source
KMML METAR 2021/03/07 23:56 UTC NOAA

KMML 072356Z AUTO 29010KT 10SM CLR 13/06 A3001 RMK AO2 SLP169 T01330056 10172 20133 53016


Station Type Date Time Source
KMML Decoded METAR 2021/03/07 23:56 UTC NOAA

Marshall, Southwest Minnesota Regional Airport - Marshall/Ryan Field, MN, United States (KMML) 44-27N 095-49W
Mar 07, 2021 - 06:56 PM EST / 2021.03.07 2356 UTC
Wind: from the WNW (290 degrees) at 12 MPH (10 KT):0
Visibility: 10 mile(s):0
Sky conditions: clear
Temperature: 55.9 F (13.3 C)
Dew Point: 42.1 F (5.6 C)
Relative Humidity: 59%
Pressure (altimeter): 30.01 in. Hg (1016 hPa)
Pressure tendency: 0.05 inches (1.6 hPa) higher than three hours ago
ob: KMML 072356Z AUTO 29010KT 10SM CLR 13/06 A3001 RMK AO2 SLP169 T01330056 10172 20133 53016
cycle: 0

Station Type Date Time Source
KMML TAF UTC NOAA

Error!

Example: see airport list